createdAt,value
2019-05-03T00:00:51.493Z,9.30
2019-05-03T00:01:49.689Z,9.27
2019-05-03T00:02:49.636Z,9.32
2019-05-03T00:03:49.624Z,9.32
2019-05-03T00:04:51.596Z,9.33
2019-05-03T00:05:49.607Z,9.37
2019-05-03T00:06:49.599Z,9.32
2019-05-03T00:07:49.623Z,9.33
2019-05-03T00:08:49.574Z,9.24
2019-05-03T00:09:49.557Z,9.29
2019-05-03T00:10:51.285Z,9.27
2019-05-03T00:11:49.539Z,9.22
2019-05-03T00:12:49.537Z,9.16
2019-05-03T00:13:49.559Z,9.23
2019-05-03T00:14:49.509Z,9.15
2019-05-03T00:15:49.491Z,9.11
2019-05-03T00:16:49.482Z,9.18
2019-05-03T00:17:49.478Z,9.22
2019-05-03T00:18:49.507Z,9.19
2019-05-03T00:19:49.446Z,9.16
2019-05-03T00:20:49.436Z,9.15
2019-05-03T00:21:49.423Z,9.16
2019-05-03T00:22:49.420Z,9.23
2019-05-03T00:23:49.446Z,9.15
2019-05-03T00:25:02.295Z,9.19
2019-05-03T00:25:52.212Z,9.30
2019-05-03T00:26:49.374Z,9.26
2019-05-03T00:27:49.356Z,9.22
2019-05-03T00:28:49.408Z,9.27
2019-05-03T00:29:49.339Z,9.22
2019-05-03T00:30:49.323Z,9.18
2019-05-03T00:31:49.312Z,9.16
2019-05-03T00:32:49.301Z,9.29
2019-05-03T00:33:49.289Z,9.18
2019-05-03T00:34:49.329Z,9.15
2019-05-03T00:35:49.278Z,9.24
2019-05-03T00:36:49.259Z,9.30
2019-05-03T00:37:49.250Z,9.24
2019-05-03T00:38:49.272Z,9.18
2019-05-03T00:39:49.222Z,9.26
2019-05-03T00:40:49.257Z,9.19
2019-05-03T00:41:49.756Z,9.18
2019-05-03T00:42:49.189Z,9.27
2019-05-03T00:43:49.181Z,9.24
2019-05-03T00:44:49.211Z,9.30
2019-05-03T00:45:49.154Z,9.30
2019-05-03T00:46:49.143Z,9.23
2019-05-03T00:47:49.140Z,9.26
2019-05-03T00:48:49.118Z,9.26
2019-05-03T00:49:49.108Z,9.27
2019-05-03T00:50:49.145Z,9.26
2019-05-03T00:51:49.084Z,9.18
2019-05-03T00:52:49.074Z,9.29
2019-05-03T00:53:49.063Z,9.32
2019-05-03T00:54:49.051Z,9.32
2019-05-03T00:55:49.066Z,9.27
2019-05-03T00:56:49.078Z,9.26
2019-05-03T00:57:49.025Z,9.26
2019-05-03T00:58:49.016Z,9.23
2019-05-03T00:59:48.994Z,9.18
2019-05-03T01:00:48.984Z,9.24
2019-05-03T01:01:49.013Z,9.24
2019-05-03T01:02:48.968Z,9.29
2019-05-03T01:03:48.950Z,9.22
2019-05-03T01:04:48.979Z,9.14
2019-05-03T01:05:48.927Z,9.16
2019-05-03T01:06:48.917Z,9.22
2019-05-03T01:07:48.904Z,9.15
2019-05-03T01:08:48.900Z,9.18
2019-05-03T01:09:48.931Z,9.22
2019-05-03T01:10:48.876Z,9.23
2019-05-03T01:11:48.862Z,9.22
2019-05-03T01:12:48.902Z,9.22
2019-05-03T01:13:48.838Z,9.24
2019-05-03T01:14:48.837Z,9.22
2019-05-03T01:15:48.818Z,9.22
2019-05-03T01:16:48.848Z,9.18
2019-05-03T01:17:48.795Z,9.29
2019-05-03T01:18:48.786Z,9.27
2019-05-03T01:19:48.810Z,9.23
2019-05-03T01:20:48.804Z,9.27
2019-05-03T01:21:48.757Z,9.30
2019-05-03T01:22:48.756Z,9.33
2019-05-03T01:23:48.791Z,9.15
2019-05-03T01:24:48.720Z,9.27
2019-05-03T01:25:48.705Z,9.19
2019-05-03T01:26:48.696Z,9.27
2019-05-03T01:27:48.687Z,9.26
2019-05-03T01:28:48.670Z,9.22
2019-05-03T01:29:48.713Z,9.24
2019-05-03T01:30:48.653Z,9.32
2019-05-03T01:31:48.642Z,9.27
2019-05-03T01:32:48.626Z,9.16
2019-05-03T01:33:48.622Z,9.22
2019-05-03T01:34:48.647Z,9.29
2019-05-03T01:35:48.593Z,9.16
2019-05-03T01:36:48.589Z,9.26
2019-05-03T01:37:48.570Z,9.33
2019-05-03T01:38:48.600Z,9.29
2019-05-03T01:39:48.551Z,9.33
2019-05-03T01:40:48.536Z,9.40
2019-05-03T01:41:48.579Z,9.30
2019-05-03T01:42:48.525Z,9.27
2019-05-03T01:43:48.548Z,9.24
2019-05-03T01:44:48.491Z,9.26
2019-05-03T01:45:48.489Z,9.18
2019-05-03T01:46:48.469Z,9.37
2019-05-03T01:47:48.514Z,9.47
2019-05-03T01:48:48.448Z,9.42
2019-05-03T01:49:48.483Z,9.33
2019-05-03T01:50:48.430Z,9.50
2019-05-03T01:51:48.432Z,9.36
2019-05-03T01:52:48.403Z,9.33
2019-05-03T01:53:48.395Z,9.37
2019-05-03T01:54:48.421Z,9.32
2019-05-03T01:55:48.374Z,9.32
2019-05-03T01:56:56.809Z,9.40
2019-05-03T01:57:49.346Z,9.42
2019-05-03T01:58:48.345Z,9.41
2019-05-03T01:59:48.362Z,9.41
2019-05-03T02:00:48.316Z,9.24
2019-05-03T02:01:48.305Z,9.36
2019-05-03T02:02:48.300Z,9.29
2019-05-03T02:03:48.322Z,9.26
2019-05-03T02:04:48.274Z,9.27
2019-05-03T02:05:48.285Z,9.16
2019-05-03T02:06:48.247Z,9.30
2019-05-03T02:07:48.675Z,9.26
2019-05-03T02:08:48.225Z,9.27
2019-05-03T02:09:48.254Z,9.42
2019-05-03T02:10:48.206Z,9.36
2019-05-03T02:11:48.266Z,9.48
2019-05-03T02:12:48.184Z,9.37
2019-05-03T02:13:48.175Z,9.41
2019-05-03T02:14:48.198Z,9.36
2019-05-03T02:15:48.194Z,9.48
2019-05-03T02:16:48.138Z,9.51
2019-05-03T02:17:48.134Z,9.51
2019-05-03T02:18:48.115Z,9.50
2019-05-03T02:19:48.148Z,9.42
2019-05-03T02:20:48.145Z,9.40
2019-05-03T02:21:48.080Z,9.33
2019-05-03T02:22:48.079Z,9.34
2019-05-03T02:23:48.070Z,9.41
2019-05-03T02:24:48.096Z,9.41
2019-05-03T02:25:56.098Z,9.29
2019-05-03T02:26:49.025Z,9.37
2019-05-03T02:27:48.016Z,9.47
2019-05-03T02:28:48.048Z,9.42
2019-05-03T02:29:48.002Z,9.45
2019-05-03T02:30:48.038Z,9.48
2019-05-03T02:31:47.972Z,9.41
2019-05-03T02:32:47.960Z,9.26
2019-05-03T02:33:47.949Z,9.27
2019-05-03T02:34:47.946Z,9.24
2019-05-03T02:35:47.934Z,9.30
2019-05-03T02:36:47.967Z,9.23
2019-05-03T02:37:47.911Z,9.29
2019-05-03T02:38:47.969Z,9.29
2019-05-03T02:39:47.883Z,9.22
2019-05-03T02:40:47.872Z,9.32
2019-05-03T02:41:49.558Z,9.41
2019-05-03T02:42:47.926Z,9.42
2019-05-03T02:43:47.889Z,9.45
2019-05-03T02:44:47.827Z,9.29
2019-05-03T02:45:47.816Z,9.40
2019-05-03T02:46:47.845Z,9.48
2019-05-03T02:47:47.794Z,9.42
2019-05-03T02:48:47.795Z,9.36
2019-05-03T02:49:47.774Z,9.37
2019-05-03T02:50:47.760Z,9.42
2019-05-03T02:51:47.748Z,9.44
2019-05-03T02:52:47.785Z,9.52
2019-05-03T02:53:47.750Z,9.48
2019-05-03T02:54:47.723Z,9.50
2019-05-03T02:55:47.768Z,9.50
2019-05-03T02:56:47.694Z,9.40
2019-05-03T02:57:47.681Z,9.42
2019-05-03T02:58:47.674Z,9.33
2019-05-03T02:59:49.810Z,9.37
2019-05-03T03:00:47.653Z,9.27
2019-05-03T03:01:48.056Z,9.26
2019-05-03T03:02:47.672Z,9.29
2019-05-03T03:03:47.618Z,9.29
2019-05-03T03:04:47.654Z,9.27
2019-05-03T03:05:47.643Z,9.27
2019-05-03T03:06:47.590Z,9.26
2019-05-03T03:07:47.619Z,9.37
2019-05-03T03:08:47.570Z,9.40
2019-05-03T03:09:47.556Z,9.37
2019-05-03T03:10:47.536Z,9.29
2019-05-03T03:11:47.529Z,9.30
2019-05-03T03:12:47.557Z,9.32
2019-05-03T03:13:47.505Z,9.42
2019-05-03T03:14:47.515Z,9.34
2019-05-03T03:15:47.532Z,9.36
2019-05-03T03:16:47.472Z,9.44
2019-05-03T03:17:47.463Z,9.50
2019-05-03T03:18:47.469Z,9.51
2019-05-03T03:19:47.440Z,9.47
2019-05-03T03:20:47.425Z,9.44
2019-05-03T03:21:47.479Z,9.45
2019-05-03T03:22:47.407Z,9.50
2019-05-03T03:23:47.401Z,9.52
2019-05-03T03:24:47.398Z,9.29
2019-05-03T03:25:47.370Z,9.30
2019-05-03T03:26:47.627Z,9.27
2019-05-03T03:27:47.402Z,9.37
2019-05-03T03:28:47.350Z,9.41
2019-05-03T03:29:47.329Z,9.42
2019-05-03T03:30:48.615Z,9.41
2019-05-03T03:31:48.125Z,9.41
2019-05-03T03:32:48.308Z,9.45
2019-05-03T03:33:47.789Z,9.45
2019-05-03T03:34:54.776Z,9.52
2019-05-03T03:35:49.111Z,9.50
2019-05-03T03:36:58.879Z,9.51
2019-05-03T03:37:48.289Z,9.52
2019-05-03T03:38:47.232Z,9.52
2019-05-03T03:39:47.286Z,9.52
2019-05-03T03:40:47.214Z,9.45
2019-05-03T03:41:47.200Z,9.45
2019-05-03T03:42:47.224Z,9.44
2019-05-03T03:43:47.174Z,9.50
2019-05-03T03:44:47.169Z,9.42
2019-05-03T03:45:47.149Z,9.48
2019-05-03T03:46:47.145Z,9.45
2019-05-03T03:47:47.131Z,9.52
2019-05-03T03:48:47.156Z,9.54
2019-05-03T03:49:47.152Z,9.60
2019-05-03T03:50:47.095Z,9.62
2019-05-03T03:51:47.136Z,9.59
2019-05-03T03:52:47.092Z,9.51
2019-05-03T03:53:47.065Z,9.50
2019-05-03T03:54:47.051Z,9.44
2019-05-03T03:55:47.040Z,9.45
2019-05-03T03:56:59.362Z,9.42
2019-05-03T03:57:48.055Z,9.50
2019-05-03T03:58:47.007Z,9.52
2019-05-03T03:59:47.015Z,9.47
2019-05-03T04:00:46.984Z,9.44
2019-05-03T04:01:46.977Z,9.42
2019-05-03T04:02:47.003Z,9.47
2019-05-03T04:03:46.959Z,9.47
2019-05-03T04:04:46.943Z,9.50
2019-05-03T04:05:47.000Z,9.48
2019-05-03T04:06:46.956Z,9.62
2019-05-03T04:07:46.911Z,9.63
2019-05-03T04:08:46.939Z,9.63
2019-05-03T04:09:46.937Z,9.63
2019-05-03T04:10:46.922Z,9.57
2019-05-03T04:11:46.859Z,9.48
2019-05-03T04:12:46.856Z,9.30
2019-05-03T04:13:46.838Z,9.41
2019-05-03T04:14:46.826Z,9.36
2019-05-03T04:15:46.817Z,9.26
2019-05-03T04:16:46.848Z,9.26
2019-05-03T04:17:46.799Z,9.26
2019-05-03T04:18:46.811Z,9.27
2019-05-03T04:19:46.827Z,9.26
2019-05-03T04:20:46.764Z,9.29
2019-05-03T04:21:46.748Z,9.30
2019-05-03T04:22:46.797Z,9.29
2019-05-03T04:23:46.733Z,9.23
2019-05-03T04:24:46.782Z,9.30
2019-05-03T04:25:46.761Z,9.24
2019-05-03T04:26:46.692Z,9.26
2019-05-03T04:27:46.689Z,9.23
2019-05-03T04:28:46.713Z,9.29
2019-05-03T04:29:46.661Z,9.24
2019-05-03T04:30:46.713Z,9.34
2019-05-03T04:31:46.638Z,9.29
2019-05-03T04:32:46.630Z,9.30
2019-05-03T04:33:46.633Z,9.15
2019-05-03T04:34:46.605Z,9.24
2019-05-03T04:35:46.724Z,9.30
2019-05-03T04:36:46.647Z,9.29
2019-05-03T04:37:46.634Z,9.32
2019-05-03T04:38:46.565Z,9.32
2019-05-03T04:39:46.549Z,9.29
2019-05-03T04:40:46.544Z,9.37
2019-05-03T04:41:46.530Z,9.37
2019-05-03T04:42:46.817Z,9.50
2019-05-03T04:43:46.585Z,9.48
2019-05-03T04:44:46.494Z,9.60
2019-05-03T04:45:46.483Z,9.59
2019-05-03T04:46:46.638Z,9.48
2019-05-03T04:47:46.696Z,9.37
2019-05-03T04:48:46.494Z,9.36
2019-05-03T04:49:46.513Z,9.27
2019-05-03T04:50:46.454Z,9.27
2019-05-03T04:51:46.768Z,9.23
2019-05-03T04:52:46.670Z,9.26
2019-05-03T04:53:46.458Z,9.30
2019-05-03T04:54:46.386Z,9.30
2019-05-03T04:55:46.981Z,9.30
2019-05-03T04:56:46.654Z,9.32
2019-05-03T04:57:50.202Z,9.29
2019-05-03T04:58:46.380Z,9.24
2019-05-03T04:59:46.325Z,9.30
2019-05-03T05:00:46.713Z,9.29
2019-05-03T05:01:46.382Z,9.23
2019-05-03T05:02:46.303Z,9.30
2019-05-03T05:03:46.302Z,9.24
2019-05-03T05:04:46.591Z,9.26
2019-05-03T05:05:46.339Z,9.37
2019-05-03T05:06:46.254Z,9.50
2019-05-03T05:07:46.249Z,9.34
2019-05-03T05:08:46.335Z,9.40
2019-05-03T05:09:46.225Z,9.33
2019-05-03T05:10:46.213Z,9.32
2019-05-03T05:11:46.203Z,9.40
2019-05-03T05:12:46.200Z,9.32
2019-05-03T05:13:46.175Z,9.40
2019-05-03T05:14:46.218Z,9.30
2019-05-03T05:15:46.265Z,9.42
2019-05-03T05:16:46.720Z,9.44
2019-05-03T05:17:46.173Z,9.52
2019-05-03T05:18:46.122Z,9.57
2019-05-03T05:19:46.114Z,9.48
2019-05-03T05:20:46.155Z,9.55
2019-05-03T05:21:46.112Z,9.65
2019-05-03T05:22:46.069Z,9.67
2019-05-03T05:23:46.138Z,9.62
2019-05-03T05:24:46.063Z,9.63
2019-05-03T05:25:46.065Z,9.60
2019-05-03T05:26:46.044Z,9.57
2019-05-03T05:27:51.081Z,9.55
2019-05-03T05:28:47.060Z,9.59
2019-05-03T05:29:46.018Z,9.57
2019-05-03T05:30:46.103Z,9.63
2019-05-03T05:31:45.975Z,9.65
2019-05-03T05:32:45.963Z,9.67
2019-05-03T05:33:45.964Z,9.72
2019-05-03T05:34:46.172Z,9.63
2019-05-03T05:35:45.929Z,9.62
2019-05-03T05:36:45.956Z,9.60
2019-05-03T05:37:45.908Z,9.55
2019-05-03T05:38:45.942Z,9.67
2019-05-03T05:39:46.560Z,9.63
2019-05-03T05:40:45.946Z,9.59
2019-05-03T05:41:45.913Z,9.67
2019-05-03T05:42:45.888Z,9.75
2019-05-03T05:43:45.903Z,9.63
2019-05-03T05:44:45.845Z,9.72
2019-05-03T05:45:45.861Z,9.77
2019-05-03T05:46:45.801Z,9.77
2019-05-03T05:47:45.860Z,9.75
2019-05-03T05:48:45.796Z,9.80
2019-05-03T05:49:45.780Z,9.75
2019-05-03T05:50:45.808Z,9.70
2019-05-03T05:51:45.753Z,9.72
2019-05-03T05:52:45.781Z,9.70
2019-05-03T05:53:45.792Z,9.73
2019-05-03T05:54:45.720Z,9.83
2019-05-03T05:55:45.709Z,9.84
2019-05-03T05:56:45.766Z,9.88
2019-05-03T05:57:45.725Z,9.81
2019-05-03T05:58:45.683Z,9.84
2019-05-03T05:59:45.726Z,9.90
2019-05-03T06:00:45.662Z,9.80
2019-05-03T06:01:45.780Z,9.88
2019-05-03T06:02:45.632Z,9.80
2019-05-03T06:03:45.613Z,9.77
2019-05-03T06:04:45.605Z,9.85
2019-05-03T06:05:45.623Z,9.90
2019-05-03T06:06:45.632Z,9.94
2019-05-03T06:07:45.570Z,9.87
2019-05-03T06:08:45.564Z,9.84
2019-05-03T06:09:45.566Z,9.85
2019-05-03T06:10:45.603Z,9.96
2019-05-03T06:11:45.593Z,9.94
2019-05-03T06:12:45.520Z,9.84
2019-05-03T06:13:45.503Z,9.85
2019-05-03T06:14:45.602Z,9.87
2019-05-03T06:15:45.490Z,9.77
2019-05-03T06:16:45.464Z,9.83
2019-05-03T06:17:45.458Z,9.94
2019-05-03T06:18:45.443Z,9.91
2019-05-03T06:19:45.448Z,9.91
2019-05-03T06:20:45.483Z,9.85
2019-05-03T06:21:47.790Z,9.93
2019-05-03T06:22:45.400Z,9.90
2019-05-03T06:23:45.392Z,9.88
2019-05-03T06:24:45.455Z,9.88
2019-05-03T06:25:45.443Z,9.90
2019-05-03T06:26:45.418Z,9.85
2019-05-03T06:27:45.389Z,9.96
2019-05-03T06:28:45.451Z,9.87
2019-05-03T06:29:45.466Z,9.90
2019-05-03T06:30:46.870Z,9.83
2019-05-03T06:31:45.317Z,9.83
2019-05-03T06:32:45.329Z,9.90
2019-05-03T06:33:45.361Z,9.88
2019-05-03T06:34:45.613Z,9.85
2019-05-03T06:35:45.298Z,9.96
2019-05-03T06:36:45.291Z,10.09
2019-05-03T06:37:45.901Z,10.09
2019-05-03T06:38:45.261Z,10.14
2019-05-03T06:39:45.567Z,10.16
2019-05-03T06:40:45.201Z,10.08
2019-05-03T06:41:45.205Z,10.08
2019-05-03T06:42:52.375Z,9.94
2019-05-03T06:43:48.763Z,10.05
2019-05-03T06:44:45.600Z,10.06
2019-05-03T06:45:49.085Z,10.12
2019-05-03T06:46:45.766Z,10.14
2019-05-03T06:47:49.597Z,10.24
2019-05-03T06:48:45.214Z,10.24
2019-05-03T06:49:48.470Z,10.24
2019-05-03T06:50:45.461Z,10.20
2019-05-03T06:51:49.510Z,10.14
2019-05-03T06:52:45.080Z,10.03
2019-05-03T06:53:47.550Z,10.14
2019-05-03T06:54:46.060Z,10.20
2019-05-03T06:55:48.341Z,10.24
2019-05-03T06:56:45.378Z,10.23
2019-05-03T06:57:49.353Z,10.14
2019-05-03T06:58:45.004Z,10.08
2019-05-03T06:59:45.205Z,10.17
2019-05-03T07:00:45.249Z,10.26
2019-05-03T07:01:45.070Z,10.20
2019-05-03T07:02:45.110Z,10.30
2019-05-03T07:03:44.973Z,10.36
2019-05-03T07:04:45.096Z,10.39
2019-05-03T07:05:44.937Z,10.46
2019-05-03T07:06:45.177Z,10.43
2019-05-03T07:07:45.028Z,10.41
2019-05-03T07:08:47.180Z,10.46
2019-05-03T07:09:45.022Z,10.30
2019-05-03T07:10:44.953Z,10.31
2019-05-03T07:11:45.174Z,10.43
2019-05-03T07:12:45.478Z,10.26
2019-05-03T07:13:45.047Z,10.34
2019-05-03T07:14:45.108Z,10.30
2019-05-03T07:15:45.474Z,10.46
2019-05-03T07:16:44.858Z,10.39
2019-05-03T07:17:45.062Z,10.36
2019-05-03T07:18:45.447Z,10.39
2019-05-03T07:19:45.902Z,10.58
2019-05-03T07:20:44.895Z,10.45
2019-05-03T07:21:44.843Z,10.55
2019-05-03T07:22:44.757Z,10.61
2019-05-03T07:23:45.193Z,10.64
2019-05-03T07:24:45.598Z,10.80
2019-05-03T07:25:44.906Z,10.80
2019-05-03T07:26:44.913Z,10.79
2019-05-03T07:27:45.278Z,10.57
2019-05-03T07:28:49.263Z,10.39
2019-05-03T07:29:45.703Z,10.28
2019-05-03T07:30:45.424Z,10.31
2019-05-03T07:31:44.800Z,10.28
2019-05-03T07:32:44.891Z,10.24
2019-05-03T07:33:44.757Z,10.24
2019-05-03T07:34:45.277Z,10.18
2019-05-03T07:35:44.571Z,10.24
2019-05-03T07:36:44.812Z,10.36
2019-05-03T07:37:45.134Z,10.41
2019-05-03T07:38:45.393Z,10.43
2019-05-03T07:39:45.257Z,10.46
2019-05-03T07:40:44.672Z,10.49
2019-05-03T07:41:44.730Z,10.57
2019-05-03T07:42:45.050Z,10.68
2019-05-03T07:43:45.059Z,10.70
2019-05-03T07:44:44.934Z,10.75
2019-05-03T07:45:44.726Z,10.78
2019-05-03T07:46:45.143Z,10.79
2019-05-03T07:47:45.223Z,10.68
2019-05-03T07:48:45.658Z,10.52
2019-05-03T07:49:44.853Z,10.57
2019-05-03T07:50:45.117Z,10.55
2019-05-03T07:51:44.893Z,10.68
2019-05-03T07:52:45.096Z,10.70
2019-05-03T07:53:45.158Z,10.68
2019-05-03T07:54:45.137Z,10.62
2019-05-03T07:55:45.734Z,10.78
2019-05-03T07:56:44.630Z,10.79
2019-05-03T07:57:45.269Z,10.78
2019-05-03T07:58:48.893Z,10.79
2019-05-03T07:59:45.593Z,10.83
2019-05-03T08:00:44.690Z,10.90
2019-05-03T08:01:45.547Z,10.94
2019-05-03T08:02:44.707Z,11.00
2019-05-03T08:03:45.124Z,10.97
2019-05-03T08:04:44.525Z,10.95
2019-05-03T08:05:45.492Z,10.87
2019-05-03T08:06:44.645Z,10.95
2019-05-03T08:07:46.183Z,10.85
2019-05-03T08:08:45.434Z,10.80
2019-05-03T08:09:45.284Z,10.79
2019-05-03T08:10:45.064Z,10.76
2019-05-03T08:11:44.481Z,10.70
2019-05-03T08:12:45.224Z,10.58
2019-05-03T08:13:44.661Z,10.39
2019-05-03T08:14:44.689Z,10.45
2019-05-03T08:15:45.210Z,10.39
2019-05-03T08:16:45.646Z,10.68
2019-05-03T08:17:45.005Z,10.79
2019-05-03T08:18:45.687Z,10.79
2019-05-03T08:19:44.725Z,10.93
2019-05-03T08:20:45.158Z,10.98
2019-05-03T08:21:45.301Z,11.15
2019-05-03T08:22:45.064Z,11.27
2019-05-03T08:23:45.318Z,11.27
2019-05-03T08:24:44.818Z,11.40
2019-05-03T08:25:44.676Z,11.31
2019-05-03T08:26:45.331Z,11.11
2019-05-03T08:27:45.285Z,11.05
2019-05-03T08:28:45.177Z,11.28
2019-05-03T08:29:45.451Z,11.34
2019-05-03T08:30:44.922Z,11.38
2019-05-03T08:31:45.430Z,11.40
2019-05-03T08:32:44.808Z,11.48
2019-05-03T08:33:44.990Z,11.69
2019-05-03T08:34:45.296Z,11.61
2019-05-03T08:35:44.853Z,11.67
2019-05-03T08:36:45.201Z,11.69
2019-05-03T08:37:45.363Z,11.66
2019-05-03T08:38:45.831Z,11.74
2019-05-03T08:39:45.442Z,11.66
2019-05-03T08:40:45.590Z,11.55
2019-05-03T08:41:45.328Z,11.77
2019-05-03T08:42:45.527Z,11.69
2019-05-03T08:43:45.260Z,11.88
2019-05-03T08:44:45.361Z,11.89
2019-05-03T08:45:44.714Z,11.87
2019-05-03T08:46:47.233Z,11.91
2019-05-03T08:47:45.036Z,11.91
2019-05-03T08:48:45.634Z,12.04
2019-05-03T08:49:45.209Z,11.93
2019-05-03T08:50:45.058Z,12.38
2019-05-03T08:51:45.198Z,12.73
2019-05-03T08:52:45.198Z,13.20
2019-05-03T08:53:45.915Z,12.99
2019-05-03T08:54:44.857Z,12.46
2019-05-03T08:55:44.950Z,12.10
2019-05-03T08:56:45.148Z,11.93
2019-05-03T08:57:44.779Z,11.84
2019-05-03T08:58:45.118Z,11.87
2019-05-03T08:59:44.608Z,11.89
2019-05-03T09:00:45.471Z,11.97
2019-05-03T09:01:45.425Z,11.80
2019-05-03T09:02:44.718Z,11.62
2019-05-03T09:03:45.612Z,11.66
2019-05-03T09:04:45.929Z,11.55
2019-05-03T09:05:45.852Z,11.45
2019-05-03T09:06:44.644Z,11.40
2019-05-03T09:07:44.729Z,11.40
2019-05-03T09:08:45.633Z,11.48
2019-05-03T09:09:43.508Z,11.41
2019-05-03T09:10:45.971Z,11.40
2019-05-03T09:11:45.396Z,11.28
2019-05-03T09:12:44.908Z,11.22
2019-05-03T09:13:44.994Z,11.30
2019-05-03T09:14:46.437Z,11.43
2019-05-03T09:15:44.581Z,11.48
2019-05-03T09:16:44.768Z,11.62
2019-05-03T09:17:44.612Z,11.88
2019-05-03T09:18:45.283Z,12.04
2019-05-03T09:19:45.245Z,11.97
2019-05-03T09:20:44.840Z,11.91
2019-05-03T09:21:45.285Z,11.91
2019-05-03T09:22:45.337Z,12.04
2019-05-03T09:23:45.103Z,12.23
2019-05-03T09:24:45.377Z,12.07
2019-05-03T09:25:45.674Z,12.10
2019-05-03T09:26:44.926Z,12.29
2019-05-03T09:27:44.649Z,12.41
2019-05-03T09:28:45.242Z,12.50
2019-05-03T09:29:45.935Z,12.53
2019-05-03T09:30:44.713Z,12.66
2019-05-03T09:31:44.697Z,12.72
2019-05-03T09:32:44.787Z,12.44
2019-05-03T09:33:45.160Z,12.50
2019-05-03T09:34:44.487Z,12.44
2019-05-03T09:35:45.128Z,12.33
2019-05-03T09:36:44.839Z,12.43
2019-05-03T09:37:44.941Z,12.61
2019-05-03T09:38:45.592Z,12.68
2019-05-03T09:39:44.570Z,12.62
2019-05-03T09:40:44.834Z,12.58
2019-05-03T09:41:45.003Z,12.47
2019-05-03T09:42:44.518Z,12.44
2019-05-03T09:43:45.090Z,12.43
2019-05-03T09:44:45.080Z,12.48
2019-05-03T09:45:45.165Z,12.50
2019-05-03T09:46:44.655Z,12.50
2019-05-03T09:47:44.746Z,12.23
2019-05-03T09:48:45.130Z,12.15
2019-05-03T09:49:45.242Z,12.23
2019-05-03T09:50:44.951Z,12.14
2019-05-03T09:51:44.444Z,12.25
2019-05-03T09:52:46.867Z,12.28
2019-05-03T09:53:44.625Z,12.25
2019-05-03T09:54:45.179Z,12.41
2019-05-03T09:55:44.837Z,12.33
2019-05-03T09:56:53.762Z,12.32
2019-05-03T09:57:44.516Z,12.38
2019-05-03T09:58:42.960Z,12.35
2019-05-03T09:59:55.753Z,12.25
2019-05-03T10:00:44.652Z,12.26
2019-05-03T10:01:45.445Z,12.28
2019-05-03T10:02:44.921Z,12.35
2019-05-03T10:03:45.129Z,12.58
2019-05-03T10:04:44.637Z,12.47
2019-05-03T10:05:59.667Z,12.46
2019-05-03T10:07:01.905Z,12.54
2019-05-03T10:07:45.580Z,12.50
2019-05-03T10:08:45.234Z,12.61
2019-05-03T10:09:45.032Z,12.73
2019-05-03T10:10:43.748Z,12.66
2019-05-03T10:11:45.552Z,12.62
2019-05-03T10:12:43.017Z,12.55
2019-05-03T10:13:42.808Z,12.41
2019-05-03T10:14:42.777Z,12.23
2019-05-03T10:15:45.011Z,12.14
2019-05-03T10:16:44.904Z,12.18
2019-05-03T10:17:43.179Z,12.25
2019-05-03T10:18:45.686Z,12.25
2019-05-03T10:19:45.042Z,12.30
2019-05-03T10:20:44.497Z,12.48
2019-05-03T10:21:44.781Z,12.65
2019-05-03T10:22:42.742Z,12.63
2019-05-03T10:23:44.918Z,12.51
2019-05-03T10:24:42.774Z,12.66
2019-05-03T10:25:42.697Z,12.83
2019-05-03T10:26:42.636Z,13.16
2019-05-03T10:27:42.706Z,13.16
2019-05-03T10:28:42.633Z,13.04
2019-05-03T10:29:44.599Z,13.06
2019-05-03T10:30:44.933Z,12.99
2019-05-03T10:31:44.840Z,12.95
2019-05-03T10:32:44.831Z,12.77
2019-05-03T10:33:44.832Z,12.69
2019-05-03T10:34:43.746Z,12.54
2019-05-03T10:35:44.981Z,12.76
2019-05-03T10:36:43.190Z,12.62
2019-05-03T10:37:45.328Z,12.65
2019-05-03T10:38:42.810Z,12.73
2019-05-03T10:39:42.564Z,13.16
2019-05-03T10:40:45.095Z,13.17
2019-05-03T10:41:45.204Z,13.19
2019-05-03T10:42:44.520Z,13.16
2019-05-03T10:43:44.904Z,13.19
2019-05-03T10:44:44.778Z,13.16
2019-05-03T10:45:44.864Z,13.11
2019-05-03T10:46:42.666Z,12.90
2019-05-03T10:47:42.645Z,12.99
2019-05-03T10:48:44.866Z,13.08
2019-05-03T10:49:43.163Z,13.09
2019-05-03T10:50:44.581Z,13.11
2019-05-03T10:51:42.407Z,13.04
2019-05-03T10:52:44.625Z,13.30
2019-05-03T10:53:42.761Z,13.26
2019-05-03T10:54:45.867Z,13.26
2019-05-03T10:55:45.098Z,13.53
2019-05-03T10:56:45.081Z,13.63
2019-05-03T10:57:44.986Z,13.61
2019-05-03T10:58:42.432Z,13.64
2019-05-03T10:59:44.883Z,13.76
2019-05-03T11:00:50.350Z,13.91
2019-05-03T11:01:45.269Z,13.68
2019-05-03T11:02:45.351Z,13.63
2019-05-03T11:03:42.621Z,13.80
2019-05-03T11:04:44.228Z,13.82
2019-05-03T11:05:42.925Z,13.61
2019-05-03T11:06:45.759Z,13.55
2019-05-03T11:07:45.163Z,13.72
2019-05-03T11:08:45.122Z,13.49
2019-05-03T11:09:49.754Z,13.49
2019-05-03T11:10:45.067Z,13.54
2019-05-03T11:11:45.205Z,13.67
2019-05-03T11:12:44.171Z,13.65
2019-05-03T11:13:43.426Z,13.86
2019-05-03T11:14:45.402Z,13.94
2019-05-03T11:15:44.465Z,13.96
2019-05-03T11:16:45.792Z,14.13
2019-05-03T11:17:45.365Z,14.36
2019-05-03T11:18:42.407Z,14.16
2019-05-03T11:19:45.397Z,13.98
2019-05-03T11:20:45.254Z,13.86
2019-05-03T11:21:42.104Z,13.78
2019-05-03T11:22:42.046Z,13.73
2019-05-03T11:23:42.054Z,13.80
2019-05-03T11:24:42.119Z,13.71
2019-05-03T11:25:42.155Z,13.63
2019-05-03T11:26:45.457Z,13.49
2019-05-03T11:27:42.013Z,13.46
2019-05-03T11:28:42.073Z,13.39
2019-05-03T11:29:44.867Z,13.30
2019-05-03T11:30:53.567Z,13.51
2019-05-03T11:31:44.575Z,13.72
2019-05-03T11:32:44.738Z,13.96
2019-05-03T11:33:42.283Z,14.08
2019-05-03T11:34:46.464Z,14.30
2019-05-03T11:35:44.635Z,14.31
2019-05-03T11:36:42.265Z,14.28
2019-05-03T11:37:41.881Z,14.08
2019-05-03T11:38:41.966Z,13.90
2019-05-03T11:39:45.093Z,13.83
2019-05-03T11:40:45.394Z,13.73
2019-05-03T11:41:44.963Z,13.68
2019-05-03T11:42:44.756Z,13.49
2019-05-03T11:43:44.253Z,13.68
2019-05-03T11:44:41.888Z,13.80
2019-05-03T11:45:44.784Z,13.90
2019-05-03T11:46:44.517Z,13.91
2019-05-03T11:47:42.417Z,13.94
2019-05-03T11:48:42.208Z,13.97
2019-05-03T11:49:45.186Z,13.55
2019-05-03T11:50:42.249Z,13.61
2019-05-03T11:51:44.615Z,13.47
2019-05-03T11:52:42.790Z,13.76
2019-05-03T11:53:44.923Z,13.58
2019-05-03T11:54:41.730Z,13.65
2019-05-03T11:55:41.661Z,13.88
2019-05-03T11:56:41.649Z,14.05
2019-05-03T11:57:41.657Z,13.97
2019-05-03T11:58:41.623Z,13.97
2019-05-03T11:59:41.599Z,13.93
2019-05-03T12:00:41.703Z,13.93
2019-05-03T12:01:41.620Z,13.93
2019-05-03T12:02:44.619Z,14.11
2019-05-03T12:03:41.597Z,13.88
2019-05-03T12:04:42.255Z,13.71
2019-05-03T12:05:41.534Z,13.42
2019-05-03T12:06:41.566Z,13.45
2019-05-03T12:07:41.505Z,13.68
2019-05-03T12:08:41.492Z,13.68
2019-05-03T12:09:41.535Z,13.65
2019-05-03T12:10:52.512Z,13.67
2019-05-03T12:11:42.460Z,14.01
2019-05-03T12:12:41.447Z,14.01
2019-05-03T12:13:41.494Z,14.00
2019-05-03T12:14:41.429Z,13.72
2019-05-03T12:15:41.471Z,13.83
2019-05-03T12:17:12.215Z,13.71
2019-05-03T12:17:51.994Z,13.57
2019-05-03T12:18:52.021Z,13.64
2019-05-03T12:19:43.881Z,13.61
2019-05-03T12:20:42.313Z,13.67
2019-05-03T12:21:41.941Z,13.78
2019-05-03T12:22:56.853Z,13.91
2019-05-03T12:23:45.283Z,14.11
2019-05-03T12:24:41.831Z,14.46
2019-05-03T12:25:41.809Z,14.78
2019-05-03T12:26:44.623Z,14.86
2019-05-03T12:27:43.997Z,15.04
2019-05-03T12:28:41.272Z,14.70
2019-05-03T12:29:41.313Z,14.28
2019-05-03T12:30:41.255Z,14.28
2019-05-03T12:31:41.264Z,14.09
2019-05-03T12:32:41.288Z,13.86
2019-05-03T12:33:41.242Z,13.67
2019-05-03T12:34:41.259Z,13.49
2019-05-03T12:35:41.193Z,13.68
2019-05-03T12:36:41.184Z,13.83
2019-05-03T12:37:41.220Z,13.78
2019-05-03T12:38:41.172Z,13.86
2019-05-03T12:39:41.163Z,13.88
2019-05-03T12:40:41.265Z,14.08
2019-05-03T12:41:41.127Z,14.31
2019-05-03T12:42:41.112Z,14.40
2019-05-03T12:43:41.107Z,14.53
2019-05-03T12:44:41.094Z,14.51
2019-05-03T12:45:41.167Z,14.48
2019-05-03T12:46:41.087Z,14.77
2019-05-03T12:47:41.055Z,14.89
2019-05-03T12:48:41.051Z,14.86
2019-05-03T12:49:41.034Z,14.95
2019-05-03T12:50:41.336Z,14.97
2019-05-03T12:51:41.054Z,15.03
2019-05-03T12:52:49.847Z,15.03
2019-05-03T12:53:41.990Z,15.15
2019-05-03T12:54:40.981Z,15.26
2019-05-03T12:55:40.970Z,15.08
2019-05-03T12:56:41.049Z,14.77
2019-05-03T12:57:40.950Z,14.83
2019-05-03T12:58:40.966Z,14.90
2019-05-03T12:59:40.933Z,15.15
2019-05-03T13:00:40.922Z,15.33
2019-05-03T13:01:42.101Z,15.33
2019-05-03T13:02:40.939Z,15.45
2019-05-03T13:03:40.883Z,15.47
2019-05-03T13:04:40.887Z,15.35
2019-05-03T13:05:40.858Z,15.54